Flight Track Log - Related Links

Times and Time Zones

All times are in EDT time to prevent confusion due to time zone crossing. See the CHQ4731 flight status page for this flight to view local times or setup timezone preferences in your user account.

Time Position Orientation Groundspeed Altitude Reporting Facility
EDT Latitude Longitude Course Direction KTS MPH feet Rate Location/Type
Sat 12:14:09 PM 39.7000 -86.3167 44° Northeast 149 171 1,500  Level Indianapolis TRACON
Sat 12:15:33 PM 39.7333 -86.3667 311° West 224 258 4,500 1,935 Climbing Indianapolis TRACON
Sat 12:16:13 PM 39.7675 -86.3703 355° North 226 260 5,500 1,941 Climbing Indianapolis Center
Sat 12:17:00 PM 39.9991 -86.2812 43° Northeast  Level FlightAware Approximate
Sat 12:17:15 PM 39.8419 -86.3508 11° North 265 305 7,800  Level Indianapolis Center
Sat 12:18:00 PM 40.0525 -86.2170 43° Northeast  Level FlightAware Approximate
Sat 12:18:16 PM 39.9114 -86.2994 30° Northeast 280 322 10,000  Level Indianapolis Center
Sat 12:19:00 PM 40.1047 -86.1511 44° Northeast  Level FlightAware Approximate
Sat 12:19:18 PM 39.9883 -86.2419 30° Northeast 309 356 11,200  Level Indianapolis Center
Sat 12:20:19 PM 40.0792 -86.2117 14° North 333 383 13,500 2,098 Climbing Indianapolis Center
Sat 12:21:21 PM 40.1686 -86.1919 10° North 326 375 15,500 1,938 Climbing Indianapolis Center
Sat 12:22:29 PM 40.2756 -86.2036 355° North 321 369 17,700 1,477 Climbing Chicago Center
Sat 12:23:31 PM 40.3656 -86.2117 356° North 323 372 18,700 780 Climbing Chicago Center
Sat 12:24:32 PM 40.4622 -86.2522 342° North 372 428 19,300 537 Climbing Chicago Center
Sat 12:25:34 PM 40.5619 -86.3017 339° North 384 442 19,800 532 Climbing Chicago Center
Sat 12:26:36 PM 40.6911 -86.3639 340° North 410 472 20,400 532 Climbing Chicago Center
Sat 12:27:38 PM 40.7925 -86.4128 340° North 419 482 20,900 293 Climbing Chicago Center
Sat 12:28:39 PM 40.9028 -86.4678 339° North 422 486 21,000 49 Climbing Chicago Center
Sat 12:29:41 PM 41.0153 -86.5228 340° North 429 494 21,000 -871 Level Chicago Center
Sat 12:30:43 PM 41.1261 -86.5775 340° North 426 490 19,200 -2,081 Descending Chicago Center
Sat 12:31:45 PM 41.2542 -86.6411 340° North 410 472 16,700 -2,341 Descending Chicago Center
Sat 12:32:46 PM 41.3569 -86.6925 339° North 398 458 14,400 -1,951 Descending Chicago Center
Sat 12:33:48 PM 41.4636 -86.7319 345° North 378 435 12,700 -1,161 Descending Chicago Center
Sat 12:34:50 PM 41.5631 -86.7564 350° North 369 425 12,000 -341 Descending Chicago Center
Sat 12:35:51 PM 41.6622 -86.7811 349° North 366 421 12,000  Level Chicago Center
Sat 12:36:53 PM 41.7597 -86.8056 349° North 362 417 12,000  Level Chicago Center
Sat 12:37:55 PM 41.8561 -86.8289 350° North 356 410 12,000 -387 Level Chicago Center
Sat 12:38:57 PM 41.9272 -86.9400 311° West 356 410 11,200 -919 Descending Chicago Center
Sat 12:39:59 PM 41.9717 -87.0497 299° West 343 395 10,100 -585 Descending Chicago Center
Sat 12:41:00 PM 41.9789 -87.1653 275° West 331 381 10,000  Descending Chicago Center
Sat 12:42:02 PM 41.9817 -87.2878 272° West 329 379 10,100 -339 Climbing Chicago Center
Sat 12:43:04 PM 41.9853 -87.3931 273° West 293 337 9,300 -1,548 Descending Chicago Center
Sat 12:44:06 PM 41.9814 -87.5053 267° West 256 295 6,900 -2,098 Descending Chicago Center
Sat 12:45:07 PM 41.9836 -87.5967 272° West 249 287 5,000 -1,869 Descending Chicago Center

Login

Don't have an account? Register now (free) for customized features, flight alerts, and more!